Time;durP1;ratioP1;P1;durP2;ratioP2;P2;SDS_P1;SDS_P2;PMS_P1;PMS_P2;Temp;Humidity;BMP_temperature;BMP_pressure;BME280_temperature;BME280_humidity;BME280_pressure;Samples;Min_cycle;Max_cycle;Signal;HPM_P1;HPM_P2
2023/01/09 00:01:26;;;;;;;;;;;;;;;9.90;91.44;98452.16;7358804;19;20577;-68
2023/01/09 00:03:54;;;;;;;;;;;;;;;9.92;91.62;98459.81;7357898;19;20723;-68
2023/01/09 00:06:24;;;;;;;;;;;;;;;9.93;91.95;98464.06;7354897;19;19938;-68
2023/01/09 00:08:52;;;;;;;;;;;;;;;9.93;91.69;98472.75;7359347;19;21890;-68
2023/01/09 00:11:22;;;;;;;;;;;;;;;9.90;91.13;98464.50;7356427;19;20566;-68
2023/01/09 00:13:49;;;;;;;;;;;;;;;9.92;91.37;98473.75;7355604;19;20920;-68
2023/01/09 00:16:17;;;;;;;;;;;;;;;9.92;91.74;98476.38;7353951;19;19950;-68
2023/01/09 00:18:44;;;;;;;;;;;;;;;9.90;92.45;98473.19;7356383;19;19955;-68
2023/01/09 00:21:12;;;;;;;;;;;;;;;9.90;92.06;98467.13;7352857;19;19956;-68
2023/01/09 00:23:45;;;;;;;;;;;;;;;9.87;91.96;98474.38;7353337;19;20289;-68
2023/01/09 00:26:16;;;;;;;;;;;;;;;9.85;91.87;98479.03;7359279;19;19922;-68
2023/01/09 00:32:47;;;;;;;;;;;;;;;9.89;91.86;98495.19;7358009;19;19915;-70
2023/01/09 00:35:30;;;;;;;;;;;;;;;9.90;92.23;98506.50;7355251;19;19929;-71
2023/01/09 00:38:10;;;;;;;;;;;;;;;9.92;91.89;98513.16;7362943;19;19947;-70
2023/01/09 00:41:12;;;;;;;;;;;;;;;9.94;92.09;98521.66;7364865;19;19993;-70
2023/01/09 00:44:00;;;;;;;;;;;;;;;9.97;91.79;98525.66;7363141;19;19919;-70
2023/01/09 00:49:33;;;;;;;;;;;;;;;9.97;92.55;98533.56;7363429;19;19933;-70
2023/01/09 00:52:12;;;;;;;;;;;;;;;9.99;91.73;98537.59;7361194;19;19937;-70
2023/01/09 00:54:51;;;;;;;;;;;;;;;9.97;91.08;98546.69;7363077;19;19927;-70
2023/01/09 00:57:25;;;;;;;;;;;;;;;9.97;91.67;98554.56;7363116;19;19992;-71
2023/01/09 00:59:59;;;;;;;;;;;;;;;9.97;91.23;98559.81;7363890;19;19939;-70
2023/01/09 01:08:51;;;;;;;;;;;;;;;9.96;90.80;98577.41;7364702;19;20502;-70
2023/01/09 01:11:18;;;;;;;;;;;;;;;9.96;91.03;98577.41;7360855;19;20411;-71
2023/01/09 01:14:01;;;;;;;;;;;;;;;9.97;91.29;98586.09;7363098;19;20716;-70
2023/01/09 01:16:31;;;;;;;;;;;;;;;9.97;91.38;98589.53;7365003;19;20337;-70
2023/01/09 01:19:01;;;;;;;;;;;;;;;9.99;91.29;98598.03;7361051;19;19927;-70
2023/01/09 01:22:16;;;;;;;;;;;;;;;9.98;91.05;98593.78;7360165;19;19919;-70
2023/01/09 01:24:53;;;;;;;;;;;;;;;9.96;90.95;98614.16;7360299;19;20424;-71
2023/01/09 01:27:20;;;;;;;;;;;;;;;9.95;90.75;98615.22;7364799;19;19930;-70
2023/01/09 01:30:01;;;;;;;;;;;;;;;9.95;90.82;98630.97;7365730;19;20217;-70
2023/01/09 01:32:39;;;;;;;;;;;;;;;9.92;90.64;98628.72;7363027;19;19919;-70
2023/01/09 01:35:20;;;;;;;;;;;;;;;9.86;90.32;98634.78;7355939;19;19925;-70
2023/01/09 01:37:48;;;;;;;;;;;;;;;9.85;90.99;98647.09;7359640;19;19957;-71
2023/01/09 01:40:42;;;;;;;;;;;;;;;9.79;90.62;98650.56;7359761;19;19923;-70
2023/01/09 01:43:17;;;;;;;;;;;;;;;9.78;91.29;98648.94;7359892;19;19943;-70
2023/01/09 01:45:48;;;;;;;;;;;;;;;9.81;91.56;98666.09;7362948;19;19926;-70
2023/01/09 01:48:35;;;;;;;;;;;;;;;9.79;90.82;98671.56;7360136;19;20930;-70
2023/01/09 01:51:15;;;;;;;;;;;;;;;9.77;90.37;98659.63;7358060;19;19919;-70
2023/01/09 01:53:49;;;;;;;;;;;;;;;9.71;90.22;98661.25;7359064;19;20605;-70
2023/01/09 01:56:26;;;;;;;;;;;;;;;9.69;90.49;98668.53;7362396;19;19933;-70
2023/01/09 02:02:12;;;;;;;;;;;;;;;9.65;90.75;98690.94;7359072;19;19923;-70
2023/01/09 02:07:58;;;;;;;;;;;;;;;9.59;90.61;98694.38;7360545;19;19923;-70
2023/01/09 02:10:26;;;;;;;;;;;;;;;9.58;90.38;98694.56;7363007;19;19929;-70
2023/01/09 02:12:56;;;;;;;;;;;;;;;9.56;90.72;98701.81;7362278;19;19922;-70
2023/01/09 02:15:47;;;;;;;;;;;;;;;9.55;90.49;98713.34;7361780;19;19930;-70
2023/01/09 02:18:22;;;;;;;;;;;;;;;9.53;90.27;98716.16;7361583;19;19975;-70
2023/01/09 02:20:55;;;;;;;;;;;;;;;9.54;90.74;98717.78;7357551;19;19922;-71
2023/01/09 02:23:31;;;;;;;;;;;;;;;9.57;90.49;98722.63;7358738;19;19914;-70
2023/01/09 02:26:01;;;;;;;;;;;;;;;9.60;90.48;98724.84;7359244;19;19937;-71
2023/01/09 02:28:49;;;;;;;;;;;;;;;9.63;90.20;98731.53;7361625;19;19926;-71
2023/01/09 02:31:23;;;;;;;;;;;;;;;9.61;90.48;98736.16;7360707;19;19923;-70
2023/01/09 02:33:58;;;;;;;;;;;;;;;9.62;90.33;98746.47;7361226;19;20357;-70
2023/01/09 02:36:35;;;;;;;;;;;;;;;9.58;89.99;98742.63;7358828;19;19915;-70
2023/01/09 02:39:30;;;;;;;;;;;;;;;9.54;89.84;98761.59;7355621;19;19934;-70
2023/01/09 02:42:15;;;;;;;;;;;;;;;9.48;89.30;98751.88;7361259;19;19951;-70
2023/01/09 02:44:45;;;;;;;;;;;;;;;9.46;89.54;98765.19;7362460;19;19938;-70
2023/01/09 02:47:14;;;;;;;;;;;;;;;9.45;89.55;98761.75;7359322;19;19919;-71
2023/01/09 02:49:49;;;;;;;;;;;;;;;9.43;89.34;98766.41;7360955;19;20340;-70
2023/01/09 02:52:34;;;;;;;;;;;;;;;9.40;89.12;98779.91;7359626;19;19980;-70
2023/01/09 02:55:17;;;;;;;;;;;;;;;9.34;89.62;98772.84;7355098;19;19922;-70
2023/01/09 02:57:54;;;;;;;;;;;;;;;9.31;89.14;98778.47;7362411;19;20312;-70
2023/01/09 03:00:30;;;;;;;;;;;;;;;9.28;89.75;98786.75;7357639;19;20710;-70
2023/01/09 03:03:06;;;;;;;;;;;;;;;9.29;89.34;98798.06;7359026;19;19927;-70
2023/01/09 03:05:42;;;;;;;;;;;;;;;9.27;89.11;98805.31;7357039;19;19926;-70
2023/01/09 03:08:25;;;;;;;;;;;;;;;9.21;88.55;98806.06;7358502;19;19918;-70
2023/01/09 03:10:59;;;;;;;;;;;;;;;9.16;88.90;98824.22;7359177;19;19949;-70
2023/01/09 03:13:33;;;;;;;;;;;;;;;9.14;89.41;98831.47;7359788;19;19926;-70
2023/01/09 03:16:02;;;;;;;;;;;;;;;9.10;89.72;98828.41;7360152;19;19930;-70
2023/01/09 03:18:31;;;;;;;;;;;;;;;9.08;89.91;98835.69;7358644;19;20597;-71
2023/01/09 03:21:05;;;;;;;;;;;;;;;9.07;89.80;98833.25;7357440;19;19911;-70
2023/01/09 03:23:43;;;;;;;;;;;;;;;9.06;89.49;98845.53;7357523;19;19929;-70
2023/01/09 03:26:10;;;;;;;;;;;;;;;9.09;88.91;98854.84;7358999;19;19923;-71
2023/01/09 03:28:38;;;;;;;;;;;;;;;9.09;89.26;98846.97;7358665;19;20193;-71
2023/01/09 03:31:16;;;;;;;;;;;;;;;9.08;89.68;98856.66;7358030;19;19926;-71
2023/01/09 03:33:44;;;;;;;;;;;;;;;9.09;89.00;98857.47;7352975;19;19927;-70
2023/01/09 03:39:33;;;;;;;;;;;;;;;9.03;89.05;98864.28;7356414;19;20002;-71
2023/01/09 03:42:30;;;;;;;;;;;;;;;8.99;88.73;98876.97;7357045;19;19943;-71
2023/01/09 03:45:00;;;;;;;;;;;;;;;8.97;89.10;98880.78;7357376;19;19923;-71
2023/01/09 03:47:28;;;;;;;;;;;;;;;8.96;89.60;98885.22;7356935;19;19946;-71
2023/01/09 03:49:55;;;;;;;;;;;;;;;8.96;88.69;98882.59;7358426;19;19932;-71
2023/01/09 03:52:22;;;;;;;;;;;;;;;8.93;88.73;98898.72;7353949;19;19937;-71
2023/01/09 03:54:49;;;;;;;;;;;;;;;8.90;89.33;98899.09;7356125;19;19951;-70
2023/01/09 03:57:17;;;;;;;;;;;;;;;8.90;89.15;98904.34;7356996;19;20006;-71
2023/01/09 03:59:44;;;;;;;;;;;;;;;8.91;89.77;98905.16;7355726;19;19934;-70
2023/01/09 04:02:15;;;;;;;;;;;;;;;8.91;89.22;98915.66;7358742;19;20683;-71
2023/01/09 04:04:45;;;;;;;;;;;;;;;8.88;88.97;98914.22;7356695;19;19923;-70
2023/01/09 04:07:15;;;;;;;;;;;;;;;8.83;89.38;98908.75;7353978;19;19925;-70
2023/01/09 04:09:43;;;;;;;;;;;;;;;8.83;89.26;98923.66;7355907;19;19984;-71
2023/01/09 04:12:13;;;;;;;;;;;;;;;8.84;88.98;98930.50;7361475;19;19923;-70
2023/01/09 04:14:40;;;;;;;;;;;;;;;8.80;89.31;98935.31;7363573;19;19926;-70
2023/01/09 04:17:17;;;;;;;;;;;;;;;8.76;89.47;98936.69;7363386;19;19923;-70
2023/01/09 04:19:47;;;;;;;;;;;;;;;8.76;90.21;98946.38;7364252;19;19931;-71
2023/01/09 04:22:21;;;;;;;;;;;;;;;8.76;90.76;98944.56;7360904;19;19915;-70
2023/01/09 04:24:50;;;;;;;;;;;;;;;8.74;90.69;98949.16;7363043;19;20327;-70
2023/01/09 04:27:17;;;;;;;;;;;;;;;8.74;91.21;98945.72;7362408;19;19919;-71
2023/01/09 04:29:46;;;;;;;;;;;;;;;8.71;91.11;98946.94;7360534;19;19953;-71
2023/01/09 04:32:13;;;;;;;;;;;;;;;8.70;91.21;98953.19;7362581;19;19934;-71
2023/01/09 04:34:40;;;;;;;;;;;;;;;8.71;91.56;98962.66;7362964;19;19919;-70
2023/01/09 04:37:19;;;;;;;;;;;;;;;8.72;91.25;98966.09;7361560;19;19930;-71
2023/01/09 04:39:48;;;;;;;;;;;;;;;8.72;91.40;98955.63;7356820;19;19927;-70
2023/01/09 04:42:16;;;;;;;;;;;;;;;8.71;91.26;98982.81;7362864;19;19925;-71
2023/01/09 04:44:43;;;;;;;;;;;;;;;8.72;91.74;98973.97;7362259;19;19961;-71
2023/01/09 04:47:15;;;;;;;;;;;;;;;8.71;91.70;98977.59;7364115;19;19930;-71
2023/01/09 04:50:06;;;;;;;;;;;;;;;8.73;91.66;98971.16;7366753;19;20621;-70
2023/01/09 04:52:42;;;;;;;;;;;;;;;8.75;91.14;98986.69;7360906;19;19969;-71
2023/01/09 04:55:27;;;;;;;;;;;;;;;8.76;90.93;98976.03;7359631;19;20003;-71
2023/01/09 04:57:54;;;;;;;;;;;;;;;8.77;90.95;98987.31;7364520;19;19990;-71
2023/01/09 05:00:24;;;;;;;;;;;;;;;8.78;90.90;98997.63;7361954;19;20034;-70
2023/01/09 05:03:03;;;;;;;;;;;;;;;8.78;90.59;98983.72;7361199;19;19930;-70
2023/01/09 05:05:30;;;;;;;;;;;;;;;8.77;90.20;98990.78;7358147;19;19937;-71
2023/01/09 05:08:07;;;;;;;;;;;;;;;8.75;90.28;98989.31;7361330;19;20314;-71
2023/01/09 05:10:34;;;;;;;;;;;;;;;8.75;90.62;98995.38;7363241;19;20276;-70
2023/01/09 05:13:02;;;;;;;;;;;;;;;8.75;90.93;99003.25;7363823;19;19926;-71
2023/01/09 05:15:49;;;;;;;;;;;;;;;8.75;91.13;99005.03;7362399;19;19925;-71
2023/01/09 05:18:17;;;;;;;;;;;;;;;8.74;91.02;99001.59;7361746;19;19915;-70
2023/01/09 05:21:04;;;;;;;;;;;;;;;8.74;90.74;98995.56;7359321;19;20026;-70
2023/01/09 05:23:31;;;;;;;;;;;;;;;8.75;91.19;99005.03;7355738;19;19960;-70
2023/01/09 05:26:14;;;;;;;;;;;;;;;8.73;90.90;99018.38;7361301;19;19919;-70
2023/01/09 05:28:41;;;;;;;;;;;;;;;8.71;90.83;99028.22;7357081;19;20714;-70
2023/01/09 05:31:08;;;;;;;;;;;;;;;8.70;90.78;99028.38;7360198;19;20003;-71
2023/01/09 05:33:35;;;;;;;;;;;;;;;8.70;91.17;99033.63;7363582;19;19930;-71
2023/01/09 05:36:02;;;;;;;;;;;;;;;8.68;91.63;99041.69;7361395;19;20012;-71
2023/01/09 05:38:30;;;;;;;;;;;;;;;8.66;91.09;99045.50;7360407;19;19915;-71
2023/01/09 05:41:00;;;;;;;;;;;;;;;8.66;91.35;99050.72;7360564;19;20870;-71
2023/01/09 05:43:30;;;;;;;;;;;;;;;8.62;91.11;99046.84;7362178;19;19923;-71
2023/01/09 05:46:03;;;;;;;;;;;;;;;8.60;91.25;99060.16;7359291;19;19915;-71
2023/01/09 05:48:33;;;;;;;;;;;;;;;8.60;91.54;99060.16;7360916;19;19925;-71
2023/01/09 05:51:03;;;;;;;;;;;;;;;8.59;91.46;99061.94;7358772;19;19939;-71
2023/01/09 05:53:30;;;;;;;;;;;;;;;8.59;91.55;99069.00;7358867;19;19925;-70
2023/01/09 05:56:05;;;;;;;;;;;;;;;8.61;91.39;99069.63;7359389;19;20506;-71
2023/01/09 05:58:32;;;;;;;;;;;;;;;8.61;91.75;99060.97;7359517;19;20034;-71
2023/01/09 06:01:30;;;;;;;;;;;;;;;8.63;92.50;99061.59;7361027;19;19943;-70
2023/01/09 06:03:57;;;;;;;;;;;;;;;8.59;91.68;99066.38;7361091;19;20609;-71
2023/01/09 06:06:24;;;;;;;;;;;;;;;8.61;91.63;99068.81;7359465;19;20847;-70
2023/01/09 06:08:54;;;;;;;;;;;;;;;8.57;91.50;99066.59;7360498;19;19922;-70
2023/01/09 06:11:27;;;;;;;;;;;;;;;8.58;91.54;99070.81;7361522;19;21637;-71
2023/01/09 06:13:54;;;;;;;;;;;;;;;8.59;92.05;99076.84;7359940;19;20900;-70
2023/01/09 06:16:22;;;;;;;;;;;;;;;8.57;92.37;99076.25;7358141;19;19915;-70
2023/01/09 06:18:49;;;;;;;;;;;;;;;8.58;92.03;99088.38;7361740;19;19918;-71
2023/01/09 06:21:19;;;;;;;;;;;;;;;8.56;92.29;99100.81;7359060;19;19937;-70
2023/01/09 06:23:47;;;;;;;;;;;;;;;8.54;91.79;99095.75;7359736;19;19919;-70
2023/01/09 06:26:14;;;;;;;;;;;;;;;8.50;91.43;99105.00;7358159;19;19991;-70
2023/01/09 06:28:43;;;;;;;;;;;;;;;8.51;92.19;99108.44;7359330;19;19926;-70
2023/01/09 06:31:12;;;;;;;;;;;;;;;8.52;92.78;99102.19;7358833;19;19927;-70
2023/01/09 06:33:39;;;;;;;;;;;;;;;8.54;93.09;99100.19;7359826;19;20271;-70
2023/01/09 06:36:07;;;;;;;;;;;;;;;8.55;92.96;99113.13;7358672;19;19911;-70
2023/01/09 06:38:34;;;;;;;;;;;;;;;8.55;92.67;99120.16;7356225;19;19926;-70
2023/01/09 06:41:01;;;;;;;;;;;;;;;8.56;92.77;99112.13;7356737;19;19918;-70
2023/01/09 06:43:29;;;;;;;;;;;;;;;8.62;92.98;99120.25;7358616;19;19919;-70
2023/01/09 06:45:59;;;;;;;;;;;;;;;8.63;92.81;99116.66;7357310;19;19922;-70
2023/01/09 06:48:26;;;;;;;;;;;;;;;8.64;92.59;99131.34;7358084;19;20354;-70
2023/01/09 06:50:54;;;;;;;;;;;;;;;8.64;92.56;99133.97;7355799;19;19919;-70
2023/01/09 06:53:21;;;;;;;;;;;;;;;8.60;92.72;99133.53;7359049;19;19927;-70
2023/01/09 06:55:51;;;;;;;;;;;;;;;8.63;92.84;99137.63;7356226;19;19929;-70
2023/01/09 06:58:19;;;;;;;;;;;;;;;8.58;92.08;99140.78;7359388;19;19929;-70
2023/01/09 07:00:58;;;;;;;;;;;;;;;8.64;91.79;99141.84;7358692;19;19915;-70
2023/01/09 07:03:35;;;;;;;;;;;;;;;8.65;91.64;99141.66;7359114;19;21660;-70
2023/01/09 07:06:06;;;;;;;;;;;;;;;8.65;91.23;99146.09;7356003;19;19923;-71
2023/01/09 07:08:34;;;;;;;;;;;;;;;8.65;91.53;99152.16;7356347;19;20819;-70
2023/01/09 07:11:15;;;;;;;;;;;;;;;8.66;91.25;99164.28;7356503;19;20359;-70
2023/01/09 07:13:42;;;;;;;;;;;;;;;8.68;90.49;99166.72;7358701;19;19919;-70
2023/01/09 07:16:17;;;;;;;;;;;;;;;8.69;89.64;99166.53;7357527;19;19915;-70
2023/01/09 07:18:45;;;;;;;;;;;;;;;8.70;89.47;99178.63;7356782;19;20014;-70
2023/01/09 07:21:12;;;;;;;;;;;;;;;8.69;89.22;99181.44;7355040;19;19926;-70
2023/01/09 07:23:39;;;;;;;;;;;;;;;8.68;89.87;99190.31;7354662;19;19930;-70
2023/01/09 07:26:35;;;;;;;;;;;;;;;8.67;89.91;99192.13;7356439;19;19926;-70
2023/01/09 07:29:03;;;;;;;;;;;;;;;8.65;89.72;99196.72;7355888;19;19933;-70
2023/01/09 07:31:30;;;;;;;;;;;;;;;8.66;89.58;99206.22;7358101;19;19972;-70
2023/01/09 07:33:57;;;;;;;;;;;;;;;8.69;90.16;99200.59;7358159;19;19934;-70
2023/01/09 07:36:27;;;;;;;;;;;;;;;8.70;90.53;99204.84;7354408;19;19978;-70
2023/01/09 07:38:54;;;;;;;;;;;;;;;8.69;90.57;99210.28;7355471;19;19934;-70
2023/01/09 07:41:21;;;;;;;;;;;;;;;8.71;90.88;99214.34;7355574;19;19922;-70
2023/01/09 07:43:48;;;;;;;;;;;;;;;8.68;89.85;99216.53;7355475;19;20251;-70
2023/01/09 07:46:15;;;;;;;;;;;;;;;8.66;89.83;99235.06;7355114;19;19919;-70
2023/01/09 07:48:42;;;;;;;;;;;;;;;8.66;89.81;99237.69;7356742;19;19926;-71
2023/01/09 07:51:10;;;;;;;;;;;;;;;8.66;90.08;99235.06;7353973;19;19922;-70
2023/01/09 07:53:36;;;;;;;;;;;;;;;8.66;89.79;99240.31;7357478;19;19923;-70
2023/01/09 07:56:06;;;;;;;;;;;;;;;8.67;89.63;99247.19;7357194;19;19957;-70
2023/01/09 07:58:33;;;;;;;;;;;;;;;8.66;89.99;99257.84;7354849;19;19923;-70
2023/01/09 08:01:21;;;;;;;;;;;;;;;8.64;89.93;99255.38;7356105;19;20344;-70
2023/01/09 08:03:55;;;;;;;;;;;;;;;8.63;89.72;99263.44;7356913;19;19931;-71
2023/01/09 08:09:10;;;;;;;;;;;;;;;8.56;89.02;99268.59;7355638;19;19982;-71
2023/01/09 08:11:40;;;;;;;;;;;;;;;8.55;88.93;99267.75;7355852;19;19943;-70
2023/01/09 08:14:07;;;;;;;;;;;;;;;8.54;89.16;99273.19;7358422;19;19919;-70
2023/01/09 08:16:39;;;;;;;;;;;;;;;8.55;89.14;99278.25;7356508;19;19922;-70
2023/01/09 08:19:06;;;;;;;;;;;;;;;8.51;88.57;99276.97;7357590;19;19923;-70
2023/01/09 08:21:40;;;;;;;;;;;;;;;8.51;89.04;99279.59;7352193;19;19934;-70
2023/01/09 08:24:08;;;;;;;;;;;;;;;8.51;89.32;99289.28;7356484;19;19918;-70
2023/01/09 08:26:44;;;;;;;;;;;;;;;8.50;89.00;99292.88;7354668;19;19990;-70
2023/01/09 08:29:11;;;;;;;;;;;;;;;8.52;88.92;99301.38;7357230;19;19934;-70
2023/01/09 08:31:39;;;;;;;;;;;;;;;8.50;88.29;99314.66;7355952;19;19922;-70
2023/01/09 08:34:21;;;;;;;;;;;;;;;8.52;88.88;99322.34;7357741;19;19955;-69
2023/01/09 08:36:55;;;;;;;;;;;;;;;8.52;88.89;99330.22;7352865;19;19959;-70
2023/01/09 08:39:22;;;;;;;;;;;;;;;8.51;88.38;99331.22;7353970;19;19925;-70
2023/01/09 08:47:20;;;;;;;;;;;;;;;8.65;89.44;99351.41;7355329;19;19935;-70
2023/01/09 08:49:48;;;;;;;;;;;;;;;8.69;88.93;99359.72;7355291;19;19921;-70
2023/01/09 08:52:15;;;;;;;;;;;;;;;8.69;88.00;99357.09;7355570;19;19931;-70
2023/01/09 08:54:46;;;;;;;;;;;;;;;8.75;88.00;99361.63;7355844;19;19937;-70
2023/01/09 08:57:14;;;;;;;;;;;;;;;8.79;88.16;99365.53;7359325;19;20479;-70
2023/01/09 08:59:42;;;;;;;;;;;;;;;8.84;87.62;99371.06;7364325;19;19930;-70
2023/01/09 09:02:13;;;;;;;;;;;;;;;8.90;88.13;99365.09;7361230;19;19914;-70
2023/01/09 09:04:41;;;;;;;;;;;;;;;8.93;87.55;99370.00;7361992;19;19981;-70
2023/01/09 09:07:08;;;;;;;;;;;;;;;8.94;87.33;99379.47;7359622;19;19919;-70
2023/01/09 09:09:35;;;;;;;;;;;;;;;8.97;87.17;99382.59;7360878;19;19998;-70
2023/01/09 09:12:03;;;;;;;;;;;;;;;8.96;86.68;99386.19;7362978;19;19929;-70
2023/01/09 09:17:09;;;;;;;;;;;;;;;9.16;91.89;99393.53;7362840;19;21595;-70
2023/01/09 09:19:38;;;;;;;;;;;;;;;9.26;91.35;99404.59;7361171;19;19911;-70
2023/01/09 09:22:08;;;;;;;;;;;;;;;9.26;88.17;99400.16;7361853;19;20286;-70
2023/01/09 09:24:35;;;;;;;;;;;;;;;9.25;86.75;99408.22;7362194;19;19919;-69
2023/01/09 09:29:33;;;;;;;;;;;;;;;9.32;85.74;99425.69;7357712;19;19993;-70
2023/01/09 09:32:01;;;;;;;;;;;;;;;9.38;86.01;99414.47;7355990;19;19943;-69
2023/01/09 09:34:29;;;;;;;;;;;;;;;9.47;86.33;99425.69;7361464;19;19923;-70
2023/01/09 09:37:00;;;;;;;;;;;;;;;9.54;85.88;99428.44;7355354;19;20680;-70
2023/01/09 09:39:28;;;;;;;;;;;;;;;9.60;86.03;99443.47;7356889;19;19915;-70
2023/01/09 09:47:05;;;;;;;;;;;;;;;9.64;84.99;99444.72;7363709;19;19923;-70
2023/01/09 09:49:45;;;;;;;;;;;;;;;9.72;85.15;99455.94;7362716;19;19929;-70
2023/01/09 09:52:21;;;;;;;;;;;;;;;9.78;84.79;99467.53;7359257;19;19918;-70
2023/01/09 09:54:50;;;;;;;;;;;;;;;9.84;84.24;99479.97;7361393;19;19925;-70
2023/01/09 09:57:22;;;;;;;;;;;;;;;9.93;84.60;99480.66;7359468;19;20368;-70
2023/01/09 09:59:51;;;;;;;;;;;;;;;9.99;84.58;99491.28;7365681;19;19926;-70
2023/01/09 10:02:23;;;;;;;;;;;;;;;10.05;83.82;99492.38;7359757;19;19949;-70
2023/01/09 10:04:58;;;;;;;;;;;;;;;10.07;82.75;99501.69;7360807;19;19923;-70
2023/01/09 10:07:32;;;;;;;;;;;;;;;10.08;82.03;99502.50;7357161;19;19935;-70
2023/01/09 10:10:03;;;;;;;;;;;;;;;10.13;83.12;99513.28;7357975;19;21714;-70
2023/01/09 10:12:34;;;;;;;;;;;;;;;10.16;82.46;99521.63;7360713;19;20320;-70
2023/01/09 10:15:06;;;;;;;;;;;;;;;10.17;82.18;99527.72;7357727;19;19943;-70
2023/01/09 10:17:36;;;;;;;;;;;;;;;10.20;82.36;99530.81;7359880;19;19935;-70
2023/01/09 10:20:05;;;;;;;;;;;;;;;10.19;81.91;99537.06;7361039;19;19999;-70
2023/01/09 10:22:39;;;;;;;;;;;;;;;10.19;82.02;99544.13;7360182;19;19942;-70
2023/01/09 10:25:08;;;;;;;;;;;;;;;10.19;82.45;99544.13;7357029;19;19927;-70
2023/01/09 10:27:38;;;;;;;;;;;;;;;10.18;82.25;99560.88;7359566;19;19951;-70
2023/01/09 10:30:18;;;;;;;;;;;;;;;10.13;82.43;99558.78;7360078;19;19922;-70
2023/01/09 10:32:55;;;;;;;;;;;;;;;10.14;82.66;99570.94;7359892;19;19931;-70
2023/01/09 10:36:03;;;;;;;;;;;;;;;10.19;81.57;99575.66;7356565;19;19959;-70
2023/01/09 10:38:32;;;;;;;;;;;;;;;10.21;81.23;99585.00;7359459;19;19948;-70
2023/01/09 10:41:09;;;;;;;;;;;;;;;10.23;81.58;99588.25;7358664;19;19914;-70
2023/01/09 10:43:37;;;;;;;;;;;;;;;10.29;82.33;99584.91;7360640;19;19966;-70
2023/01/09 10:46:19;;;;;;;;;;;;;;;10.32;81.60;99599.50;7356991;19;19986;-70
2023/01/09 10:49:08;;;;;;;;;;;;;;;10.33;81.32;99600.31;7362584;19;19939;-70
2023/01/09 10:51:42;;;;;;;;;;;;;;;10.32;81.37;99598.69;7356325;19;19986;-70
2023/01/09 10:54:29;;;;;;;;;;;;;;;10.34;81.42;99609.84;7357374;19;19929;-67
2023/01/09 10:57:22;;;;;;;;;;;;;;;10.36;81.71;99613.13;7358358;19;20531;-67
2023/01/09 10:59:51;;;;;;;;;;;;;;;10.36;81.30;99615.75;7358523;19;19926;-67
2023/01/09 11:02:21;;;;;;;;;;;;;;;10.43;81.56;99627.16;7359631;19;20535;-67
2023/01/09 11:04:49;;;;;;;;;;;;;;;10.49;82.19;99624.63;7359930;19;19987;-68
2023/01/09 11:07:35;;;;;;;;;;;;;;;10.48;80.85;99638.75;7356849;19;19947;-67
2023/01/09 11:10:03;;;;;;;;;;;;;;;10.49;81.14;99634.31;7358228;19;19915;-67
2023/01/09 11:12:37;;;;;;;;;;;;;;;10.51;81.96;99633.16;7358370;19;19971;-68
2023/01/09 11:15:11;;;;;;;;;;;;;;;10.55;81.30;99633.59;7359257;19;19923;-67
2023/01/09 11:17:52;;;;;;;;;;;;;;;10.53;81.00;99649.53;7353503;19;20799;-67
2023/01/09 11:20:19;;;;;;;;;;;;;;;10.50;79.80;99655.19;7353556;19;19951;-67
2023/01/09 11:22:48;;;;;;;;;;;;;;;10.52;80.16;99657.59;7359647;19;19982;-68
2023/01/09 11:25:26;;;;;;;;;;;;;;;10.52;80.26;99658.44;7357747;19;19990;-67
2023/01/09 11:28:16;;;;;;;;;;;;;;;10.53;79.83;99659.25;7354584;19;20046;-67
2023/01/09 11:30:46;;;;;;;;;;;;;;;10.50;79.82;99655.19;7356171;19;21883;-67
2023/01/09 11:33:14;;;;;;;;;;;;;;;10.55;80.52;99657.25;7358308;19;19965;-68
2023/01/09 11:35:45;;;;;;;;;;;;;;;10.58;80.76;99662.16;7355294;19;20606;-67
2023/01/09 11:38:15;;;;;;;;;;;;;;;10.56;79.51;99654.47;7341835;19;21676;-67
2023/01/09 11:40:59;;;;;;;;;;;;;;;10.58;79.42;99670.84;7343918;19;21509;-67
2023/01/09 11:43:29;;;;;;;;;;;;;;;10.57;78.70;99676.28;7357057;19;20835;-67
2023/01/09 11:46:05;;;;;;;;;;;;;;;10.63;78.81;99688.72;7353771;19;20403;-67
2023/01/09 11:48:34;;;;;;;;;;;;;;;10.67;78.13;99689.97;7354503;19;19919;-67
2023/01/09 11:51:04;;;;;;;;;;;;;;;10.74;78.21;99698.78;7352155;19;19923;-67
2023/01/09 11:53:35;;;;;;;;;;;;;;;10.73;77.81;99708.50;7355847;19;19921;-67
2023/01/09 11:56:03;;;;;;;;;;;;;;;10.79;77.89;99709.59;7358434;19;20545;-68
2023/01/09 12:01:32;;;;;;;;;;;;;;;10.90;78.16;99718.84;7358936;19;20406;-69
2023/01/09 12:04:19;;;;;;;;;;;;;;;10.98;78.85;99726.63;7357174;19;20009;-69
2023/01/09 12:07:02;;;;;;;;;;;;;;;11.03;76.89;99726.91;7357650;19;19923;-69
2023/01/09 12:12:32;;;;;;;;;;;;;;;11.13;75.52;99736.16;7357245;19;19922;-69
2023/01/09 12:15:04;;;;;;;;;;;;;;;11.21;75.23;99739.69;7355212;19;19961;-69
2023/01/09 12:17:36;;;;;;;;;;;;;;;11.26;75.03;99751.31;7357785;19;19971;-70
2023/01/09 12:20:21;;;;;;;;;;;;;;;11.31;74.21;99748.13;7356909;19;20033;-69
2023/01/09 12:22:49;;;;;;;;;;;;;;;11.37;74.17;99750.03;7354239;19;19923;-69
2023/01/09 12:25:28;;;;;;;;;;;;;;;11.36;72.75;99751.84;7354058;19;19927;-69
2023/01/09 12:27:58;;;;;;;;;;;;;;;11.41;73.29;99764.44;7353934;19;19933;-69
2023/01/09 12:30:27;;;;;;;;;;;;;;;11.44;73.55;99761.44;7336956;19;19927;-69
2023/01/09 12:37:08;;;;;;;;;;;;;;;11.57;72.59;99777.41;7349708;19;20020;-69
2023/01/09 12:43:48;;;;;;;;;;;;;;;11.63;71.67;99789.81;7356643;19;19919;-69
2023/01/09 12:49:43;;;;;;;;;;;;;;;11.72;70.72;99809.81;7362638;19;19930;-69
2023/01/09 12:52:23;;;;;;;;;;;;;;;11.78;70.10;99801.19;7360009;19;19931;-69
2023/01/09 13:02:13;;;;;;;;;;;;;;;11.84;68.70;99818.06;7361165;19;20037;-68
2023/01/09 13:08:23;;;;;;;;;;;;;;;11.72;66.82;99830.91;7357863;19;19928;-68
2023/01/09 13:11:00;;;;;;;;;;;;;;;11.71;66.68;99828.44;7360199;19;19985;-69
2023/01/09 13:13:47;;;;;;;;;;;;;;;11.68;67.79;99829.63;7362056;19;19943;-68
2023/01/09 13:16:31;;;;;;;;;;;;;;;11.65;68.17;99834.44;7362487;19;20865;-68
2023/01/09 13:19:45;;;;;;;;;;;;;;;11.63;67.78;99849.63;7362137;19;20327;-68
2023/01/09 13:25:06;;;;;;;;;;;;;;;11.52;66.94;99850.91;7357532;19;19921;-69
2023/01/09 13:28:10;;;;;;;;;;;;;;;11.42;66.95;99851.19;7359563;19;19956;-69
2023/01/09 13:30:55;;;;;;;;;;;;;;;11.34;66.52;99864.44;7361492;19;19942;-68
2023/01/09 13:33:30;;;;;;;;;;;;;;;11.38;66.69;99855.16;7357464;19;19932;-69
2023/01/09 13:36:02;;;;;;;;;;;;;;;11.43;67.13;99862.53;7360512;19;19919;-68
2023/01/09 13:38:37;;;;;;;;;;;;;;;11.51;67.28;99876.44;7359331;19;19967;-68
2023/01/09 13:44:20;;;;;;;;;;;;;;;11.53;67.01;99886.78;7353241;19;20606;-68
2023/01/09 13:47:02;;;;;;;;;;;;;;;11.57;65.40;99898.59;7356517;19;19922;-69
2023/01/09 13:53:06;;;;;;;;;;;;;;;11.54;64.08;99912.13;7356748;19;20799;-68
2023/01/09 13:55:37;;;;;;;;;;;;;;;11.54;64.42;99920.03;7359330;19;19923;-68
2023/01/09 13:58:13;;;;;;;;;;;;;;;11.56;65.39;99932.03;7362652;19;19911;-69
2023/01/09 14:01:08;;;;;;;;;;;;;;;11.58;63.71;99929.19;7359431;19;19922;-69
2023/01/09 14:03:39;;;;;;;;;;;;;;;11.65;63.86;99929.28;7360914;19;20413;-68
2023/01/09 14:06:26;;;;;;;;;;;;;;;11.68;63.39;99940.31;7355885;19;19929;-68
2023/01/09 14:09:28;;;;;;;;;;;;;;;11.70;63.62;99948.00;7342067;19;19977;-68
2023/01/09 14:12:02;;;;;;;;;;;;;;;11.67;63.60;99951.84;7356316;19;19915;-68
2023/01/09 14:14:32;;;;;;;;;;;;;;;11.67;63.12;99953.66;7359034;19;20366;-68
2023/01/09 14:17:23;;;;;;;;;;;;;;;11.65;61.59;99974.09;7365196;19;19915;-68
2023/01/09 14:20:04;;;;;;;;;;;;;;;11.59;61.72;99981.72;7360036;19;19986;-68
2023/01/09 14:22:40;;;;;;;;;;;;;;;11.60;63.10;99987.81;7360322;19;20863;-69
2023/01/09 14:25:32;;;;;;;;;;;;;;;11.60;63.61;99998.34;7354584;19;19922;-68
2023/01/09 14:28:07;;;;;;;;;;;;;;;11.58;62.49;99998.50;7356625;19;20376;-69
2023/01/09 14:34:19;;;;;;;;;;;;;;;11.54;62.87;100004.31;7353200;19;19927;-68
2023/01/09 14:36:58;;;;;;;;;;;;;;;11.46;61.91;100013.13;7353838;19;19911;-68
2023/01/09 14:39:34;;;;;;;;;;;;;;;11.42;62.02;100026.84;7353647;19;19922;-69
2023/01/09 14:42:05;;;;;;;;;;;;;;;11.37;61.92;100032.66;7351981;19;19923;-68
2023/01/09 14:44:42;;;;;;;;;;;;;;;11.31;60.62;100043.88;7358098;19;19952;-69
2023/01/09 14:47:27;;;;;;;;;;;;;;;11.25;59.75;100051.66;7357937;19;19927;-68
2023/01/09 14:50:02;;;;;;;;;;;;;;;11.18;61.03;100053.34;7362055;19;19922;-68